Time;durP1;ratioP1;P1;durP2;ratioP2;P2;SDS_P1;SDS_P2;PMS_P1;PMS_P2;Temp;Humidity;BMP_temperature;BMP_pressure;BME280_temperature;BME280_humidity;BME280_pressure;Samples;Min_cycle;Max_cycle;Signal;HPM_P1;HPM_P2
2023/12/19 00:00:17;;;;;;;;;;;;;;;19.79;45.66;101671.72;2100615;28;6000;-74
2023/12/19 00:01:18;;;;;;;;;;;;;;;19.79;45.90;101672.47;2101860;28;1586;-74
2023/12/19 00:02:20;;;;;;;;;;;;;;;19.78;45.81;101664.47;2099620;28;1977;-74
2023/12/19 00:03:21;;;;;;;;;;;;;;;19.77;45.62;101663.72;2098001;28;1800;-74
2023/12/19 00:04:23;;;;;;;;;;;;;;;19.77;45.69;101654.34;2099762;28;2000;-74
2023/12/19 00:05:24;;;;;;;;;;;;;;;19.77;45.64;101654.34;2101696;28;1919;-74
2023/12/19 00:06:26;;;;;;;;;;;;;;;19.77;45.72;101645.72;2100560;28;1930;-75
2023/12/19 00:07:28;;;;;;;;;;;;;;;19.76;45.69;101642.09;2099081;28;1890;-75
2023/12/19 00:08:29;;;;;;;;;;;;;;;19.77;45.61;101642.84;2096986;28;1992;-75
2023/12/19 00:09:30;;;;;;;;;;;;;;;19.76;45.57;101644.22;2101431;28;1634;-74
2023/12/19 00:10:32;;;;;;;;;;;;;;;19.76;45.66;101632.72;2098944;28;1577;-74
2023/12/19 00:11:34;;;;;;;;;;;;;;;19.77;45.65;101639.97;2101525;28;1633;-75
2023/12/19 00:12:37;;;;;;;;;;;;;;;19.77;45.48;101639.97;2100029;28;1913;-75
2023/12/19 00:13:38;;;;;;;;;;;;;;;19.76;45.65;101638.47;2102725;28;1691;-75
2023/12/19 00:14:40;;;;;;;;;;;;;;;19.77;45.70;101628.47;2097271;28;1724;-75
2023/12/19 00:15:41;;;;;;;;;;;;;;;19.77;45.72;101637.09;2101469;28;2056;-74
2023/12/19 00:16:43;;;;;;;;;;;;;;;19.76;45.66;101621.25;2099619;28;1986;-75
2023/12/19 00:17:44;;;;;;;;;;;;;;;19.76;45.65;101627.00;2097331;28;1930;-75
2023/12/19 00:18:46;;;;;;;;;;;;;;;19.76;45.75;101621.25;2100201;28;1550;-74
2023/12/19 00:19:47;;;;;;;;;;;;;;;19.75;45.49;101623.38;2103068;28;1578;-74
2023/12/19 00:20:52;;;;;;;;;;;;;;;19.76;45.62;101618.38;2098593;28;2000;-75
2023/12/19 00:21:55;;;;;;;;;;;;;;;19.76;45.67;101612.63;2100018;28;1949;-75
2023/12/19 00:22:57;;;;;;;;;;;;;;;19.76;45.52;101632.72;2099193;28;1692;-74
2023/12/19 00:23:58;;;;;;;;;;;;;;;19.75;45.53;101637.75;2098500;28;2041;-76
2023/12/19 00:25:00;;;;;;;;;;;;;;;19.76;45.57;101635.59;2097355;28;1960;-75
2023/12/19 00:26:02;;;;;;;;;;;;;;;19.75;45.47;101637.00;2100290;28;1890;-75
2023/12/19 00:27:03;;;;;;;;;;;;;;;19.75;45.62;101639.88;2099216;28;2033;-75
2023/12/19 00:28:05;;;;;;;;;;;;;;;19.75;45.51;101637.00;2097640;28;2362;-74
2023/12/19 00:29:06;;;;;;;;;;;;;;;19.74;45.47;101644.09;2102114;28;1804;-74
2023/12/19 00:30:07;;;;;;;;;;;;;;;19.75;45.45;101640.63;2096979;28;6143;-75
2023/12/19 00:31:09;;;;;;;;;;;;;;;19.75;45.50;101639.88;2100903;28;1832;-75
2023/12/19 00:32:10;;;;;;;;;;;;;;;19.73;45.54;101634.00;2100575;28;2111;-74
2023/12/19 00:33:12;;;;;;;;;;;;;;;19.72;45.49;101636.09;2102535;28;1663;-75
2023/12/19 00:34:15;;;;;;;;;;;;;;;19.74;45.48;101641.22;2099693;28;1968;-75
2023/12/19 00:35:16;;;;;;;;;;;;;;;19.72;45.53;101650.47;2098962;28;1600;-74
2023/12/19 00:36:21;;;;;;;;;;;;;;;19.73;45.53;101659.84;2098901;28;2021;-73
2023/12/19 00:37:23;;;;;;;;;;;;;;;19.73;45.55;101662.72;2098731;28;1938;-75
2023/12/19 00:38:24;;;;;;;;;;;;;;;19.72;45.47;101661.97;2098451;28;1780;-75
2023/12/19 00:39:26;;;;;;;;;;;;;;;19.72;45.56;101649.72;2100640;28;1930;-74
2023/12/19 00:40:28;;;;;;;;;;;;;;;19.71;45.61;101642.50;2097476;28;1928;-76
2023/12/19 00:41:29;;;;;;;;;;;;;;;19.70;45.52;101636.00;2097932;28;2504;-75
2023/12/19 00:42:31;;;;;;;;;;;;;;;19.70;45.39;101646.72;2098853;28;1566;-75
2023/12/19 00:43:32;;;;;;;;;;;;;;;19.70;45.53;101647.50;2102071;28;1931;-75
2023/12/19 00:44:37;;;;;;;;;;;;;;;19.69;45.56;101648.84;2090315;28;1973;-75
2023/12/19 00:45:38;;;;;;;;;;;;;;;19.69;45.50;101651.72;2095200;28;1983;-75
2023/12/19 00:46:43;;;;;;;;;;;;;;;19.69;45.54;101666.09;2099043;28;2022;-75
2023/12/19 00:47:44;;;;;;;;;;;;;;;19.69;45.69;101668.97;2096849;28;2076;-75
2023/12/19 00:48:46;;;;;;;;;;;;;;;19.69;45.47;101679.72;2098780;28;1967;-75
2023/12/19 00:49:47;;;;;;;;;;;;;;;19.69;45.61;101679.72;2097952;28;2005;-75
2023/12/19 00:50:49;;;;;;;;;;;;;;;19.69;45.62;101682.59;2100336;28;1964;-75
2023/12/19 00:51:50;;;;;;;;;;;;;;;19.69;45.57;101685.47;2106154;28;1821;-75
2023/12/19 00:52:52;;;;;;;;;;;;;;;19.68;45.55;101684.69;2100403;28;1460;-75
2023/12/19 00:53:53;;;;;;;;;;;;;;;19.69;45.57;101682.59;2097212;28;1957;-76
2023/12/19 00:54:55;;;;;;;;;;;;;;;19.67;45.47;101672.44;2097390;28;2069;-70
2023/12/19 00:55:56;;;;;;;;;;;;;;;19.67;45.59;101665.94;2098593;28;2033;-68
2023/12/19 00:56:58;;;;;;;;;;;;;;;19.67;45.54;101660.94;2102533;28;1997;-72
2023/12/19 00:57:59;;;;;;;;;;;;;;;19.67;45.55;101665.94;2103109;28;1931;-69
2023/12/19 00:59:01;;;;;;;;;;;;;;;19.66;45.43;101650.06;2102117;28;1571;-69
2023/12/19 01:00:02;;;;;;;;;;;;;;;19.66;45.48;101647.19;2098463;28;1999;-69
2023/12/19 01:01:04;;;;;;;;;;;;;;;19.65;45.56;101634.19;2102067;28;6066;-69
2023/12/19 01:02:05;;;;;;;;;;;;;;;19.65;45.55;101637.84;2101811;28;2224;-69
2023/12/19 01:03:07;;;;;;;;;;;;;;;19.66;45.55;101639.31;2100337;28;2107;-70
2023/12/19 01:04:09;;;;;;;;;;;;;;;19.65;45.47;101643.59;2097189;28;2036;-70
2023/12/19 01:05:10;;;;;;;;;;;;;;;19.65;45.55;101632.09;2099350;28;2068;-69
2023/12/19 01:06:12;;;;;;;;;;;;;;;19.65;45.64;101640.72;2099318;28;1962;-69
2023/12/19 01:07:14;;;;;;;;;;;;;;;19.65;45.56;101643.59;2096933;28;1975;-69
2023/12/19 01:08:15;;;;;;;;;;;;;;;19.65;45.53;101652.22;2099387;28;1993;-69
2023/12/19 01:09:16;;;;;;;;;;;;;;;19.64;45.57;101650.69;2101300;28;1665;-69
2023/12/19 01:10:18;;;;;;;;;;;;;;;19.64;45.42;101650.69;2103562;28;1720;-69
2023/12/19 01:11:19;;;;;;;;;;;;;;;19.64;45.43;101661.44;2101954;28;1997;-69
2023/12/19 01:12:21;;;;;;;;;;;;;;;19.64;45.56;101662.19;2103631;28;2071;-69
2023/12/19 01:13:22;;;;;;;;;;;;;;;19.64;45.48;101670.06;2099874;28;1912;-69
2023/12/19 01:14:24;;;;;;;;;;;;;;;19.63;45.58;101660.69;2098099;28;1985;-69
2023/12/19 01:15:25;;;;;;;;;;;;;;;19.63;45.57;101657.06;2100962;28;1812;-69
2023/12/19 01:16:28;;;;;;;;;;;;;;;19.63;45.52;101657.81;2098960;28;1978;-69
2023/12/19 01:17:29;;;;;;;;;;;;;;;19.63;45.43;101666.44;2102674;28;1697;-70
2023/12/19 01:18:31;;;;;;;;;;;;;;;19.63;45.55;101672.19;2100323;28;1914;-69
2023/12/19 01:19:33;;;;;;;;;;;;;;;19.62;45.56;101670.69;2103303;28;1990;-69
2023/12/19 01:20:34;;;;;;;;;;;;;;;19.63;45.60;101672.19;2101279;28;1933;-69
2023/12/19 01:21:36;;;;;;;;;;;;;;;19.63;45.53;101672.19;2100491;28;1953;-69
2023/12/19 01:22:38;;;;;;;;;;;;;;;19.62;45.48;101670.69;2101978;28;1631;-69
2023/12/19 01:23:39;;;;;;;;;;;;;;;19.63;45.48;101671.41;2101362;28;2038;-69
2023/12/19 01:24:41;;;;;;;;;;;;;;;19.62;45.55;101653.44;2098797;28;2100;-69
2023/12/19 01:25:42;;;;;;;;;;;;;;;19.61;45.57;101657.69;2099117;28;1933;-69
2023/12/19 01:26:44;;;;;;;;;;;;;;;19.62;45.34;101653.44;2099946;28;2404;-69
2023/12/19 01:27:46;;;;;;;;;;;;;;;19.62;45.50;101646.94;2109206;28;1569;-68
2023/12/19 01:28:47;;;;;;;;;;;;;;;19.61;45.36;101646.19;2105647;28;2070;-69
2023/12/19 01:29:49;;;;;;;;;;;;;;;19.60;45.54;101647.56;2100622;28;1711;-69
2023/12/19 01:30:50;;;;;;;;;;;;;;;19.61;45.52;101646.19;2102053;28;5949;-69
2023/12/19 01:31:53;;;;;;;;;;;;;;;19.60;45.43;101638.94;2100128;28;1810;-69
2023/12/19 01:32:54;;;;;;;;;;;;;;;19.60;45.53;101650.44;2103516;28;1669;-69
2023/12/19 01:33:57;;;;;;;;;;;;;;;19.60;45.67;101650.44;2098964;28;2058;-69
2023/12/19 01:34:58;;;;;;;;;;;;;;;19.60;45.45;101655.44;2098708;28;1930;-68
2023/12/19 01:36:01;;;;;;;;;;;;;;;19.61;45.48;101659.81;2099554;28;1606;-69
2023/12/19 01:37:03;;;;;;;;;;;;;;;19.60;45.51;101661.94;2098172;28;1970;-69
2023/12/19 01:38:05;;;;;;;;;;;;;;;19.62;45.58;101664.94;2099670;28;1743;-69
2023/12/19 01:39:06;;;;;;;;;;;;;;;19.61;45.43;101668.44;2099938;28;1997;-69
2023/12/19 01:40:08;;;;;;;;;;;;;;;19.61;45.55;101663.44;2101569;28;1961;-69
2023/12/19 01:41:10;;;;;;;;;;;;;;;19.60;45.43;101667.69;2100592;28;1871;-69
2023/12/19 01:42:11;;;;;;;;;;;;;;;19.60;45.54;101666.94;2098527;28;1565;-69
2023/12/19 01:43:19;;;;;;;;;;;;;;;19.60;45.58;101661.94;2102180;28;1560;-69
2023/12/19 01:44:20;;;;;;;;;;;;;;;19.60;45.61;101656.19;2101540;28;1941;-69
2023/12/19 01:45:21;;;;;;;;;;;;;;;19.59;45.51;101660.44;2100314;28;2001;-69
2023/12/19 01:46:23;;;;;;;;;;;;;;;19.59;45.45;101665.44;2098769;28;2020;-69
2023/12/19 01:47:24;;;;;;;;;;;;;;;19.59;45.57;101663.31;2100926;28;1963;-69
2023/12/19 01:48:26;;;;;;;;;;;;;;;19.60;45.62;101673.41;2101028;28;1835;-69
2023/12/19 01:49:27;;;;;;;;;;;;;;;19.58;45.62;101661.78;2101650;28;1895;-69
2023/12/19 01:50:30;;;;;;;;;;;;;;;19.59;45.60;101660.44;2103062;28;1801;-69
2023/12/19 01:51:31;;;;;;;;;;;;;;;19.58;45.51;101647.44;2101070;28;1971;-69
2023/12/19 01:52:35;;;;;;;;;;;;;;;19.58;45.57;101650.31;2101814;28;1796;-69
2023/12/19 01:53:37;;;;;;;;;;;;;;;19.57;45.62;101654.56;2102026;28;1816;-69
2023/12/19 01:54:39;;;;;;;;;;;;;;;19.57;45.53;101650.94;2098014;28;2157;-69
2023/12/19 01:55:41;;;;;;;;;;;;;;;19.58;45.47;101650.31;2098968;28;1880;-69
2023/12/19 01:56:42;;;;;;;;;;;;;;;19.58;45.42;101649.56;2103049;28;2115;-69
2023/12/19 01:57:44;;;;;;;;;;;;;;;19.58;45.41;101641.69;2100792;28;1957;-69
2023/12/19 01:58:46;;;;;;;;;;;;;;;19.58;45.45;101638.81;2102301;28;1937;-69
2023/12/19 01:59:48;;;;;;;;;;;;;;;19.58;45.53;101640.94;2101931;28;1890;-69
2023/12/19 02:00:49;;;;;;;;;;;;;;;19.57;45.48;101645.94;2099365;28;6011;-69
2023/12/19 02:01:51;;;;;;;;;;;;;;;19.57;45.63;101648.81;2101906;28;1823;-69
2023/12/19 02:02:52;;;;;;;;;;;;;;;19.57;45.63;101642.34;2102184;28;1534;-69
2023/12/19 02:03:54;;;;;;;;;;;;;;;19.57;45.47;101642.34;2101233;28;1654;-69
2023/12/19 02:04:55;;;;;;;;;;;;;;;19.56;45.55;101632.97;2101763;28;1891;-69
2023/12/19 02:05:57;;;;;;;;;;;;;;;19.56;45.58;101620.72;2098578;28;1816;-70
2023/12/19 02:06:58;;;;;;;;;;;;;;;19.56;45.46;101621.47;2099725;28;2426;-69
2023/12/19 02:08:00;;;;;;;;;;;;;;;19.56;45.51;101632.19;2098513;28;1968;-69
2023/12/19 02:09:02;;;;;;;;;;;;;;;19.56;45.48;101632.19;2100393;28;1909;-69
2023/12/19 02:10:03;;;;;;;;;;;;;;;19.57;45.47;101640.19;2100741;28;2002;-69
2023/12/19 02:11:05;;;;;;;;;;;;;;;19.56;45.57;101641.59;2102518;28;1997;-69
2023/12/19 02:12:06;;;;;;;;;;;;;;;19.55;45.60;101640.06;2102408;28;1880;-69
2023/12/19 02:13:08;;;;;;;;;;;;;;;19.55;45.66;101663.06;2095238;28;1538;-69
2023/12/19 02:14:09;;;;;;;;;;;;;;;19.56;45.44;101655.94;2102068;28;2008;-68
2023/12/19 02:15:11;;;;;;;;;;;;;;;19.55;45.58;101654.44;2103704;28;1551;-69
2023/12/19 02:16:13;;;;;;;;;;;;;;;19.56;45.46;101649.44;2103674;28;1905;-69
2023/12/19 02:17:16;;;;;;;;;;;;;;;19.56;45.56;101649.44;2099789;28;2172;-68
2023/12/19 02:18:19;;;;;;;;;;;;;;;19.55;45.51;101647.94;2101685;28;1917;-68
2023/12/19 02:19:21;;;;;;;;;;;;;;;19.54;45.47;101641.47;2096739;28;2072;-68
2023/12/19 02:20:23;;;;;;;;;;;;;;;19.54;45.55;101644.31;2100637;28;1682;-68
2023/12/19 02:21:24;;;;;;;;;;;;;;;19.55;45.58;101633.59;2102019;28;1825;-68
2023/12/19 02:22:27;;;;;;;;;;;;;;;19.55;45.42;101619.22;2099720;28;1721;-69
2023/12/19 02:23:28;;;;;;;;;;;;;;;19.54;45.49;101618.47;2099588;28;1502;-68
2023/12/19 02:24:30;;;;;;;;;;;;;;;19.54;45.46;101618.47;2101570;28;2080;-68
2023/12/19 02:25:31;;;;;;;;;;;;;;;19.54;45.43;101612.72;2097174;28;2100;-68
2023/12/19 02:26:33;;;;;;;;;;;;;;;19.54;45.58;101603.34;2099416;28;1909;-68
2023/12/19 02:27:35;;;;;;;;;;;;;;;19.54;45.48;101604.13;2097731;28;1845;-68
2023/12/19 02:28:37;;;;;;;;;;;;;;;19.53;45.45;101605.47;2095448;28;2219;-68
2023/12/19 02:29:38;;;;;;;;;;;;;;;19.53;45.57;101605.47;2095851;28;1970;-69
2023/12/19 02:30:39;;;;;;;;;;;;;;;19.53;45.52;101614.09;2098740;28;6039;-69
2023/12/19 02:31:44;;;;;;;;;;;;;;;19.54;45.47;101611.97;2098127;28;1962;-68
2023/12/19 02:32:47;;;;;;;;;;;;;;;19.53;45.59;101611.22;2099336;28;1798;-68
2023/12/19 02:33:49;;;;;;;;;;;;;;;19.53;45.54;101610.47;2100018;28;1983;-69
2023/12/19 02:34:50;;;;;;;;;;;;;;;19.53;45.57;101610.47;2100119;28;2247;-69
2023/12/19 02:35:52;;;;;;;;;;;;;;;19.53;45.61;101610.47;2097827;28;1986;-69
2023/12/19 02:36:53;;;;;;;;;;;;;;;19.52;45.46;101598.25;2099715;28;1902;-68
2023/12/19 02:37:55;;;;;;;;;;;;;;;19.52;45.60;101598.25;2098495;28;2046;-69
2023/12/19 02:38:56;;;;;;;;;;;;;;;19.52;45.51;101589.63;2098442;28;1522;-68
2023/12/19 02:39:58;;;;;;;;;;;;;;;19.51;45.45;101590.97;2098664;28;1961;-68
2023/12/19 02:40:59;;;;;;;;;;;;;;;19.52;45.47;101595.38;2099657;28;1887;-69
2023/12/19 02:42:00;;;;;;;;;;;;;;;19.52;45.43;101591.75;2101616;28;1888;-68
2023/12/19 02:43:02;;;;;;;;;;;;;;;19.51;45.62;101579.50;2098794;28;1598;-68
2023/12/19 02:44:03;;;;;;;;;;;;;;;19.50;45.53;101575.13;2099544;28;1866;-68
2023/12/19 02:45:05;;;;;;;;;;;;;;;19.50;45.55;101578.00;2099044;28;1958;-68
2023/12/19 02:46:06;;;;;;;;;;;;;;;19.50;45.47;101578.00;2098332;28;1818;-68
2023/12/19 02:47:08;;;;;;;;;;;;;;;19.50;45.49;101572.25;2099930;28;1965;-68
2023/12/19 02:48:09;;;;;;;;;;;;;;;19.49;45.60;101567.88;2099545;28;2034;-68
2023/12/19 02:49:11;;;;;;;;;;;;;;;19.50;45.62;101572.25;2101056;28;1526;-68
2023/12/19 02:50:12;;;;;;;;;;;;;;;19.51;45.61;101573.00;2096955;28;1976;-68
2023/12/19 02:51:14;;;;;;;;;;;;;;;19.50;45.58;101575.13;2102619;28;1546;-69
2023/12/19 02:52:15;;;;;;;;;;;;;;;19.50;45.38;101572.25;2100254;28;1947;-68
2023/12/19 02:53:17;;;;;;;;;;;;;;;19.49;45.50;101573.63;2101402;28;2050;-68
2023/12/19 02:54:18;;;;;;;;;;;;;;;19.50;45.42;101578.00;2102818;28;2148;-68
2023/12/19 02:55:20;;;;;;;;;;;;;;;19.50;45.58;101583.00;2101949;28;1590;-69
2023/12/19 02:56:21;;;;;;;;;;;;;;;19.49;45.52;101575.75;2098527;28;1724;-68
2023/12/19 02:57:22;;;;;;;;;;;;;;;19.49;45.56;101582.22;2099906;28;1999;-68
2023/12/19 02:58:24;;;;;;;;;;;;;;;19.50;45.51;101575.13;2098680;28;1918;-69
2023/12/19 02:59:25;;;;;;;;;;;;;;;19.49;45.57;101570.00;2098419;28;2045;-68
2023/12/19 03:00:27;;;;;;;;;;;;;;;19.48;45.36;101563.50;2099148;28;5985;-68
2023/12/19 03:01:28;;;;;;;;;;;;;;;19.47;45.63;101556.28;2101817;28;1796;-68
2023/12/19 03:02:30;;;;;;;;;;;;;;;19.49;45.49;101555.63;2097774;28;1499;-68
2023/12/19 03:03:31;;;;;;;;;;;;;;;19.48;45.58;101563.50;2100981;28;1563;-68
2023/12/19 03:04:33;;;;;;;;;;;;;;;19.48;45.54;101560.63;2098962;28;1602;-68
2023/12/19 03:05:35;;;;;;;;;;;;;;;19.49;45.50;101561.38;2099808;28;1510;-68
2023/12/19 03:06:36;;;;;;;;;;;;;;;19.48;45.48;101557.78;2099282;28;1937;-68
2023/12/19 03:07:38;;;;;;;;;;;;;;;19.48;45.56;101563.50;2099558;28;1879;-68
2023/12/19 03:08:43;;;;;;;;;;;;;;;19.48;45.46;101559.91;2097513;28;1807;-68
2023/12/19 03:09:44;;;;;;;;;;;;;;;19.47;45.56;101559.16;2099520;28;2029;-68
2023/12/19 03:10:46;;;;;;;;;;;;;;;19.47;45.42;101556.28;2101267;28;1958;-68
2023/12/19 03:11:57;;;;;;;;;;;;;;;19.46;45.58;101560.50;2102224;28;2013;-68
2023/12/19 03:12:58;;;;;;;;;;;;;;;19.46;45.47;101563.38;2097855;28;1654;-68
2023/12/19 03:14:00;;;;;;;;;;;;;;;19.45;45.47;101564.78;2100772;28;1955;-68
2023/12/19 03:15:02;;;;;;;;;;;;;;;19.46;45.55;101558.38;2099374;28;1988;-68
2023/12/19 03:16:03;;;;;;;;;;;;;;;19.45;45.50;101559.03;2100493;28;1790;-68
2023/12/19 03:17:05;;;;;;;;;;;;;;;19.45;45.56;101559.03;2099630;28;1930;-68
2023/12/19 03:18:06;;;;;;;;;;;;;;;19.45;45.53;101553.28;2099417;28;1871;-68
2023/12/19 03:19:08;;;;;;;;;;;;;;;19.45;45.55;101539.66;2099108;28;2083;-68
2023/12/19 03:20:10;;;;;;;;;;;;;;;19.45;45.56;101550.41;2100630;28;1768;-68
2023/12/19 03:21:11;;;;;;;;;;;;;;;19.45;45.51;101547.53;2097534;28;1887;-68
2023/12/19 03:22:12;;;;;;;;;;;;;;;19.44;45.62;101540.28;2098990;28;1639;-68
2023/12/19 03:23:14;;;;;;;;;;;;;;;19.44;45.60;101540.28;2102318;28;1811;-68
2023/12/19 03:24:15;;;;;;;;;;;;;;;19.44;45.49;101546.75;2098864;28;2047;-68
2023/12/19 03:25:17;;;;;;;;;;;;;;;19.44;45.54;101534.53;2102778;28;1486;-68
2023/12/19 03:26:18;;;;;;;;;;;;;;;19.45;45.55;101533.19;2098919;28;1552;-68
2023/12/19 03:27:19;;;;;;;;;;;;;;;19.43;45.52;101527.31;2103661;28;1997;-68
2023/12/19 03:28:21;;;;;;;;;;;;;;;19.43;45.51;101522.31;2098600;28;1927;-68
2023/12/19 03:29:22;;;;;;;;;;;;;;;19.42;45.54;101522.91;2091776;28;1967;-67
2023/12/19 03:30:24;;;;;;;;;;;;;;;19.43;45.55;101527.31;2100144;28;5990;-68
2023/12/19 03:31:25;;;;;;;;;;;;;;;19.44;45.36;101537.41;2100127;28;2242;-68
2023/12/19 03:32:27;;;;;;;;;;;;;;;19.43;45.50;101527.31;2099249;28;1946;-68
2023/12/19 03:33:29;;;;;;;;;;;;;;;19.43;45.47;101527.31;2101543;28;1962;-68
2023/12/19 03:34:30;;;;;;;;;;;;;;;19.42;45.47;101529.44;2102350;28;1720;-68
2023/12/19 03:35:32;;;;;;;;;;;;;;;19.43;45.66;101527.31;2100848;28;1528;-68
2023/12/19 03:36:33;;;;;;;;;;;;;;;19.42;45.50;101535.19;2097767;28;1837;-68
2023/12/19 03:37:34;;;;;;;;;;;;;;;19.43;45.53;101533.78;2100311;28;1610;-68
2023/12/19 03:38:36;;;;;;;;;;;;;;;19.43;45.57;101535.91;2096436;28;1930;-68
2023/12/19 03:39:37;;;;;;;;;;;;;;;19.44;45.55;101537.41;2100025;28;2073;-68
2023/12/19 03:40:39;;;;;;;;;;;;;;;19.43;45.50;101544.53;2098517;28;1709;-69
2023/12/19 03:41:40;;;;;;;;;;;;;;;19.44;45.59;101548.91;2099799;28;1622;-69
2023/12/19 03:43:02;;;;;;;;;;;;;;;19.44;45.41;101546.03;2099385;28;2096;-68
2023/12/19 03:44:04;;;;;;;;;;;;;;;19.44;45.47;101540.28;2098519;28;1892;-69
2023/12/19 03:45:05;;;;;;;;;;;;;;;19.46;45.43;101538.28;2099039;28;1581;-68
2023/12/19 03:46:07;;;;;;;;;;;;;;;19.46;45.41;101538.28;2099650;28;1988;-68
2023/12/19 03:47:11;;;;;;;;;;;;;;;19.48;45.46;101545.53;2100146;28;1909;-68
2023/12/19 03:48:13;;;;;;;;;;;;;;;19.48;45.30;101545.53;2097343;28;1969;-68
2023/12/19 03:49:14;;;;;;;;;;;;;;;19.49;45.34;101547.03;2100982;28;1859;-68
2023/12/19 03:50:16;;;;;;;;;;;;;;;19.49;45.37;101550.63;2100776;28;1762;-68
2023/12/19 03:51:17;;;;;;;;;;;;;;;19.49;45.39;101547.75;2101856;28;1824;-69
2023/12/19 03:52:20;;;;;;;;;;;;;;;19.50;45.45;101543.53;2097244;28;1903;-68
2023/12/19 03:53:22;;;;;;;;;;;;;;;19.50;45.42;101543.53;2101234;28;1651;-68
2023/12/19 03:54:24;;;;;;;;;;;;;;;19.50;45.38;101537.78;2100399;28;1796;-69
2023/12/19 03:55:26;;;;;;;;;;;;;;;19.51;45.40;101539.28;2100289;28;1922;-69
2023/12/19 03:56:27;;;;;;;;;;;;;;;19.51;45.48;101532.78;2098411;28;2013;-68
2023/12/19 03:57:29;;;;;;;;;;;;;;;19.53;45.33;101536.53;2101228;28;1723;-69
2023/12/19 03:58:30;;;;;;;;;;;;;;;19.53;45.40;101533.66;2099951;28;1986;-69
2023/12/19 03:59:31;;;;;;;;;;;;;;;19.53;45.40;101533.66;2097287;28;1914;-68
2023/12/19 04:00:33;;;;;;;;;;;;;;;19.52;45.46;101535.03;2099331;28;6025;-69
2023/12/19 04:01:41;;;;;;;;;;;;;;;19.53;45.44;101527.91;2097366;28;1478;-69
2023/12/19 04:02:43;;;;;;;;;;;;;;;19.53;45.35;101530.03;2098960;28;2027;-69
2023/12/19 04:03:44;;;;;;;;;;;;;;;19.53;45.45;101525.03;2100019;28;1685;-69
2023/12/19 04:04:46;;;;;;;;;;;;;;;19.53;45.51;101533.66;2095721;28;1982;-68
2023/12/19 04:05:47;;;;;;;;;;;;;;;19.52;45.47;101523.56;2098754;28;1815;-69
2023/12/19 04:06:49;;;;;;;;;;;;;;;19.54;45.38;101526.53;2098463;28;1955;-68
2023/12/19 04:07:50;;;;;;;;;;;;;;;19.54;45.57;101526.53;2099461;28;1953;-69
2023/12/19 04:08:52;;;;;;;;;;;;;;;19.55;45.43;101528.03;2100688;28;1578;-68
2023/12/19 04:09:53;;;;;;;;;;;;;;;19.55;45.58;101533.03;2096927;28;2033;-69
2023/12/19 04:10:54;;;;;;;;;;;;;;;19.55;45.62;101533.78;2099649;28;1523;-68
2023/12/19 04:11:58;;;;;;;;;;;;;;;19.55;45.60;101533.78;2100273;28;1527;-68
2023/12/19 04:12:59;;;;;;;;;;;;;;;19.56;45.46;101528.78;2101943;28;1929;-68
2023/12/19 04:14:01;;;;;;;;;;;;;;;19.56;45.60;101528.78;2096438;28;1891;-69
2023/12/19 04:15:02;;;;;;;;;;;;;;;19.55;45.53;101522.28;2100652;28;1988;-68
2023/12/19 04:16:04;;;;;;;;;;;;;;;19.56;45.55;101523.81;2099299;28;1911;-69
2023/12/19 04:17:05;;;;;;;;;;;;;;;19.56;45.52;101531.66;2098392;28;1844;-68
2023/12/19 04:18:08;;;;;;;;;;;;;;;19.56;45.59;101528.78;2107237;28;1954;-69
2023/12/19 04:19:09;;;;;;;;;;;;;;;19.56;45.54;101523.81;2106024;28;1931;-69
2023/12/19 04:20:11;;;;;;;;;;;;;;;19.57;45.66;101530.28;2097858;28;1792;-69
2023/12/19 04:21:13;;;;;;;;;;;;;;;19.57;45.62;101531.03;2097570;28;1984;-68
2023/12/19 04:22:14;;;;;;;;;;;;;;;19.56;45.62;101529.53;2097559;28;1543;-68
2023/12/19 04:23:16;;;;;;;;;;;;;;;19.58;45.61;101532.50;2099763;28;2035;-69
2023/12/19 04:24:18;;;;;;;;;;;;;;;19.58;45.62;101529.63;2098903;28;2044;-69
2023/12/19 04:25:19;;;;;;;;;;;;;;;19.58;45.52;101526.78;2100536;28;1857;-69
2023/12/19 04:26:21;;;;;;;;;;;;;;;19.59;45.63;101531.16;2098658;28;2005;-68
2023/12/19 04:27:22;;;;;;;;;;;;;;;19.59;45.63;101536.91;2098606;28;1998;-69
2023/12/19 04:28:24;;;;;;;;;;;;;;;19.59;45.65;101544.78;2098770;28;1946;-68
2023/12/19 04:29:25;;;;;;;;;;;;;;;19.58;45.68;101538.25;2097707;28;2215;-68
2023/12/19 04:30:26;;;;;;;;;;;;;;;19.59;45.64;101542.66;2098138;28;6285;-68
2023/12/19 04:31:28;;;;;;;;;;;;;;;19.59;45.59;101539.78;2098165;28;1800;-68
2023/12/19 04:32:30;;;;;;;;;;;;;;;19.59;45.70;101536.91;2099876;28;1887;-68
2023/12/19 04:33:31;;;;;;;;;;;;;;;19.59;45.72;101536.91;2102377;28;1491;-68
2023/12/19 04:34:33;;;;;;;;;;;;;;;19.59;45.61;101534.03;2098193;28;1919;-68
2023/12/19 04:35:35;;;;;;;;;;;;;;;19.60;45.71;101529.75;2101206;28;2301;-68
2023/12/19 04:36:36;;;;;;;;;;;;;;;19.59;45.57;101522.53;2098260;28;1958;-68
2023/12/19 04:37:38;;;;;;;;;;;;;;;19.59;45.73;101522.53;2100494;28;1946;-69
2023/12/19 04:38:39;;;;;;;;;;;;;;;19.60;45.80;101529.75;2098956;28;1873;-69
2023/12/19 04:39:41;;;;;;;;;;;;;;;19.60;45.71;101529.03;2097236;28;2044;-69
2023/12/19 04:40:42;;;;;;;;;;;;;;;19.60;45.80;101524.03;2100549;28;2295;-68
2023/12/19 04:41:43;;;;;;;;;;;;;;;19.59;45.75;101522.53;2097705;28;1610;-69
2023/12/19 04:42:45;;;;;;;;;;;;;;;19.59;45.84;101522.53;2100107;28;1584;-68
2023/12/19 04:43:47;;;;;;;;;;;;;;;19.60;45.94;101518.28;2101420;28;1970;-68
2023/12/19 04:44:48;;;;;;;;;;;;;;;19.59;45.97;101516.78;2101787;28;2248;-68
2023/12/19 04:45:50;;;;;;;;;;;;;;;19.59;45.97;101522.53;2102167;28;1563;-69
2023/12/19 04:46:51;;;;;;;;;;;;;;;19.59;45.96;101521.78;2102221;28;1561;-68
2023/12/19 04:47:53;;;;;;;;;;;;;;;19.60;45.98;101531.91;2101113;28;1983;-68
2023/12/19 04:48:55;;;;;;;;;;;;;;;19.59;45.98;101531.16;2101901;28;1939;-69
2023/12/19 04:49:57;;;;;;;;;;;;;;;19.61;45.93;101521.91;2097448;28;2030;-68
2023/12/19 04:50:58;;;;;;;;;;;;;;;19.61;45.92;101513.31;2100397;28;2037;-69
2023/12/19 04:52:00;;;;;;;;;;;;;;;19.62;45.84;101523.41;2103853;28;2107;-68
2023/12/19 04:53:01;;;;;;;;;;;;;;;19.61;45.86;101514.03;2100617;28;2043;-68
2023/12/19 04:54:03;;;;;;;;;;;;;;;19.61;45.80;101504.69;2098296;28;1558;-68
2023/12/19 04:55:05;;;;;;;;;;;;;;;19.60;45.95;101503.91;2096461;28;1914;-68
2023/12/19 04:56:06;;;;;;;;;;;;;;;19.61;45.96;101505.44;2098301;28;2206;-69
2023/12/19 04:57:08;;;;;;;;;;;;;;;19.61;45.89;101496.81;2100656;28;2083;-68
2023/12/19 04:58:09;;;;;;;;;;;;;;;19.62;45.86;101498.28;2100270;28;2072;-69
2023/12/19 04:59:10;;;;;;;;;;;;;;;19.63;45.92;101494.06;2099035;28;1969;-68
2023/12/19 05:00:12;;;;;;;;;;;;;;;19.63;45.97;101494.06;2097743;28;6123;-69
2023/12/19 05:01:13;;;;;;;;;;;;;;;19.63;46.00;101482.56;2099772;28;2017;-69
2023/12/19 05:02:15;;;;;;;;;;;;;;;19.64;46.00;101497.66;2101857;28;2028;-68
2023/12/19 05:03:16;;;;;;;;;;;;;;;19.64;45.94;101503.41;2100581;28;1913;-68
2023/12/19 05:04:18;;;;;;;;;;;;;;;19.64;45.93;101500.53;2101991;28;2019;-69
2023/12/19 05:05:20;;;;;;;;;;;;;;;19.63;46.03;101494.06;2100140;28;2049;-68
2023/12/19 05:06:21;;;;;;;;;;;;;;;19.63;45.95;101488.31;2099081;28;2232;-68
2023/12/19 05:07:24;;;;;;;;;;;;;;;19.63;46.02;101476.81;2100104;28;1593;-68
2023/12/19 05:08:26;;;;;;;;;;;;;;;19.64;46.00;101481.16;2104263;28;1913;-69
2023/12/19 05:09:27;;;;;;;;;;;;;;;19.64;46.09;101484.03;2099580;28;1895;-68
2023/12/19 05:10:28;;;;;;;;;;;;;;;19.64;46.01;101478.31;2101221;28;1584;-69
2023/12/19 05:11:30;;;;;;;;;;;;;;;19.64;45.93;101477.56;2105037;28;1640;-68
2023/12/19 05:12:31;;;;;;;;;;;;;;;19.64;46.06;101478.31;2101211;28;2101;-68
2023/12/19 05:13:33;;;;;;;;;;;;;;;19.63;46.10;101476.81;2102288;28;1930;-68
2023/12/19 05:14:34;;;;;;;;;;;;;;;19.64;46.05;101484.03;2102603;28;1973;-68
2023/12/19 05:15:35;;;;;;;;;;;;;;;19.64;46.13;101478.31;2100109;28;2072;-68
2023/12/19 05:16:37;;;;;;;;;;;;;;;19.63;46.11;101481.78;2097884;28;2026;-68
2023/12/19 05:17:38;;;;;;;;;;;;;;;19.64;46.21;101498.41;2100546;28;1986;-68
2023/12/19 05:18:41;;;;;;;;;;;;;;;19.64;46.24;101491.91;2103565;28;1793;-67
2023/12/19 05:19:43;;;;;;;;;;;;;;;19.65;46.03;101502.03;2104205;28;1807;-68
2023/12/19 05:20:53;;;;;;;;;;;;;;;19.64;46.19;101501.28;2097733;28;1949;-69
2023/12/19 05:21:55;;;;;;;;;;;;;;;19.63;46.16;101505.53;2100384;28;1677;-69